General Aviation Weather

Text Reports

Enter one or more of the following location identifiers separated by a space:

Zip Code, Four-Character ICAO or Three-Character IATA airport codes.

METAR - Aviation Routine Weather Report
KXSA - Tappahannock, Virginia
Updated at 8:35 AM GMT on June 30, 2015 (4:35 AM EDT):
METAR KXSA 300835Z AUTO 14003KT 10SM OVC120 21/19 A2992 RMK AO2 T02110190
TAF - Terminal Area Forecast
KXSA - Tappahannock, Virginia
Updated at 8:35 AM GMT on June 30, 2015 (4:35 AM EDT):
No TAF is currently available for this location.
Decoded:
No decoded TAF is available.
PIREP - Pilot Weather Report
KXSA - Tappahannock, Virginia
Updated at 8:35 AM GMT on June 30, 2015 (4:35 AM EDT):
No PIREP is currently available for this location.
AIRMET - Airmens Meteorological Information
KXSA - Tappahannock, Virginia
Updated at 8:35 AM GMT on June 30, 2015 (4:35 AM EDT):
No AIRMET is currently available for this location.
SIGMET - Significant Meteorological Information
KXSA - Tappahannock, Virginia
Updated at 8:35 AM GMT on June 30, 2015 (4:35 AM EDT):
No SIGMET is currently available for this location.
NOTAM - Notice to Airmen
KXSA - Tappahannock, Virginia
Updated at 8:35 AM GMT on June 30, 2015 (4:35 AM EDT):
No NOTAM is currently available for this location.
Forecast Area
KXSA - Tappahannock, Virginia
Updated at 8:35 AM GMT on June 30, 2015 (4:35 AM EDT):
No NOTAM is currently available for this location.
Aviation Weather Maps